Time;durP1;ratioP1;P1;durP2;ratioP2;P2;SDS_P1;SDS_P2;PMS_P1;PMS_P2;Temp;Humidity;BMP_temperature;BMP_pressure;BME280_temperature;BME280_humidity;BME280_pressure;Samples;Min_cycle;Max_cycle;Signal;HPM_P1;HPM_P2
2023/09/24 00:02:19;;;;;;;26.20;15.30;;;;;;;13.22;100.00;101361.38;105811;1253;70281;-72
2023/09/24 00:04:47;;;;;;;19.90;15.20;;;;;;;13.20;100.00;101362.41;105682;1257;61682;-74
2023/09/24 00:07:15;;;;;;;21.50;15.70;;;;;;;13.18;100.00;101360.60;105737;1256;60422;-74
2023/09/24 00:09:42;;;;;;;28.00;14.80;;;;;;;13.16;100.00;101362.45;105688;1253;73815;-74
2023/09/24 00:12:09;;;;;;;30.10;16.00;;;;;;;13.14;100.00;101364.30;105739;1256;62734;-74
2023/09/24 00:14:36;;;;;;;27.20;16.20;;;;;;;13.13;100.00;101365.64;105776;1256;72641;-74
2023/09/24 00:17:03;;;;;;;35.40;17.40;;;;;;;13.10;100.00;101361.77;105872;1252;60543;-73
2023/09/24 00:19:34;;;;;;;31.50;16.20;;;;;;;13.08;100.00;101362.95;105757;1253;60460;-74
2023/09/24 00:22:02;;;;;;;22.50;14.90;;;;;;;13.05;100.00;101365.73;105636;1254;72913;-74
2023/09/24 00:24:29;;;;;;;25.00;15.80;;;;;;;13.03;100.00;101360.40;105686;1256;64135;-73
2023/09/24 00:26:56;;;;;;;26.90;15.70;;;;;;;13.02;100.00;101365.38;105695;1253;72687;-76
2023/09/24 00:29:22;;;;;;;24.60;15.10;;;;;;;13.00;100.00;101364.94;105751;1256;62002;-74
2023/09/24 00:31:50;;;;;;;27.90;15.30;;;;;;;12.98;100.00;101363.87;105704;1253;60508;-73
2023/09/24 00:34:17;;;;;;;22.60;15.50;;;;;;;12.96;100.00;101362.75;105641;1256;73943;-73
2023/09/24 00:36:44;;;;;;;22.60;15.60;;;;;;;12.94;100.00;101365.15;105681;1256;65300;-74
2023/09/24 00:39:11;;;;;;;23.80;15.50;;;;;;;12.91;100.00;101364.80;105813;1253;72755;-75
2023/09/24 00:41:38;;;;;;;18.90;13.60;;;;;;;12.89;100.00;101364.73;105741;1256;61976;-72
2023/09/24 00:44:06;;;;;;;23.00;13.00;;;;;;;12.86;100.00;101360.15;105711;1253;60530;-73
2023/09/24 00:46:33;;;;;;;24.50;14.30;;;;;;;12.84;100.00;101363.96;105785;1256;73854;-73
2023/09/24 00:49:00;;;;;;;22.00;16.00;;;;;;;12.84;100.00;101364.15;105781;1256;63527;-73
2023/09/24 00:51:28;;;;;;;20.00;13.70;;;;;;;12.84;100.00;101363.10;105672;1254;72383;-72
2023/09/24 00:53:58;;;;;;;24.90;14.30;;;;;;;12.83;100.00;101360.36;105803;1256;62202;-72
2023/09/24 00:56:24;;;;;;;19.10;13.80;;;;;;;12.81;100.00;101361.34;105672;1253;60486;-73
2023/09/24 00:58:52;;;;;;;15.70;13.80;;;;;;;12.81;100.00;101360.29;105581;1253;73965;-74
2023/09/24 01:01:24;;;;;;;20.00;15.00;;;;;;;12.82;100.00;101358.45;105606;1257;62402;-73
2023/09/24 01:03:52;;;;;;;17.00;13.70;;;;;;;12.81;100.00;101362.72;105664;1253;71592;-71
2023/09/24 01:06:20;;;;;;;22.80;15.60;;;;;;;12.80;100.00;101362.63;105722;1254;60997;-73
2023/09/24 01:08:47;;;;;;;18.70;13.70;;;;;;;12.76;100.00;101360.91;105739;1253;60492;-74
2023/09/24 01:11:14;;;;;;;22.90;14.10;;;;;;;12.72;100.00;101357.65;105664;1254;72351;-75
2023/09/24 01:13:43;;;;;;;21.70;15.30;;;;;;;12.69;100.00;101359.56;105683;1255;62759;-73
2023/09/24 01:16:12;;;;;;;21.50;14.10;;;;;;;12.66;100.00;101362.70;105669;1257;71472;-75
2023/09/24 01:18:43;;;;;;;20.40;13.60;;;;;;;12.64;100.00;101360.70;105742;1256;62020;-73
2023/09/24 01:21:14;;;;;;;21.60;14.40;;;;;;;12.62;100.00;101362.03;105669;1253;61016;-74
2023/09/24 01:23:44;;;;;;;22.10;14.60;;;;;;;12.61;100.00;101363.02;105742;1253;73840;-74
2023/09/24 01:26:18;;;;;;;23.20;14.30;;;;;;;12.59;100.00;101359.09;105774;1256;62420;-76
2023/09/24 01:28:47;;;;;;;24.30;14.80;;;;;;;12.57;100.00;101357.77;105723;1256;72415;-75
2023/09/24 01:31:15;;;;;;;23.70;15.60;;;;;;;12.55;100.00;101359.29;105729;1255;60642;-74
2023/09/24 01:33:43;;;;;;;29.80;17.30;;;;;;;12.53;100.00;101360.95;105697;1254;60507;-74
2023/09/24 01:36:10;;;;;;;25.00;15.50;;;;;;;12.52;100.00;101361.06;105773;1256;73890;-72
2023/09/24 01:38:41;;;;;;;29.50;15.90;;;;;;;12.51;100.00;101363.02;105565;1253;62517;-71
2023/09/24 01:41:12;;;;;;;23.90;14.90;;;;;;;12.51;100.00;101361.99;105761;1254;72720;-74
2023/09/24 01:43:42;;;;;;;24.70;16.70;;;;;;;12.50;100.00;101362.23;105778;1256;60820;-74
2023/09/24 01:46:10;;;;;;;27.90;15.20;;;;;;;12.49;100.00;101365.12;105706;1252;60525;-74
2023/09/24 01:48:37;;;;;;;25.00;15.30;;;;;;;12.47;100.00;101365.90;105654;1253;73884;-72
2023/09/24 01:51:10;;;;;;;22.30;14.50;;;;;;;12.44;100.00;101371.98;105667;1253;62409;-76
2023/09/24 01:53:37;;;;;;;24.50;15.90;;;;;;;12.42;100.00;101371.77;105810;1257;72697;-75
2023/09/24 01:56:06;;;;;;;21.20;14.60;;;;;;;12.40;100.00;101368.91;105628;1256;61814;-73
2023/09/24 01:58:35;;;;;;;22.90;15.80;;;;;;;12.38;100.00;101374.13;105641;1258;60288;-76
2023/09/24 02:01:02;;;;;;;22.50;15.50;;;;;;;12.36;100.00;101377.90;105709;1254;72646;-74
2023/09/24 02:03:32;;;;;;;22.10;14.70;;;;;;;12.34;100.00;101373.98;105793;1252;63771;-72
2023/09/24 02:05:59;;;;;;;22.20;16.20;;;;;;;12.33;100.00;101374.36;105636;1259;72350;-73
2023/09/24 02:08:26;;;;;;;22.80;14.80;;;;;;;12.32;100.00;101373.71;105717;1256;61925;-73
2023/09/24 02:10:53;;;;;;;26.00;16.30;;;;;;;12.32;100.00;101376.54;105725;1253;60549;-75
2023/09/24 02:13:20;;;;;;;26.70;16.00;;;;;;;12.32;100.00;101379.02;105736;1253;73853;-74
2023/09/24 02:15:48;;;;;;;24.40;16.00;;;;;;;12.32;100.00;101380.06;105708;1259;62307;-71
2023/09/24 02:18:15;;;;;;;20.40;14.30;;;;;;;12.30;100.00;101378.05;105855;1257;72763;-73
2023/09/24 02:20:47;;;;;;;20.10;15.20;;;;;;;12.27;100.00;101379.77;105686;1254;60485;-73
2023/09/24 02:23:14;;;;;;;28.80;14.30;;;;;;;12.24;100.00;101380.84;105801;1254;60911;-73
2023/09/24 02:25:48;;;;;;;23.80;15.90;;;;;;;12.19;100.00;101378.63;105762;1253;72812;-71
2023/09/24 02:28:17;;;;;;;22.90;16.50;;;;;;;12.16;100.00;101381.96;105723;1253;62689;-71
2023/09/24 02:30:45;;;;;;;24.30;15.90;;;;;;;12.13;100.00;101379.50;105668;1253;72707;-76
2023/09/24 02:33:12;;;;;;;25.60;18.00;;;;;;;12.11;100.00;101383.28;105760;1259;61899;-73
2023/09/24 02:35:39;;;;;;;25.80;19.20;;;;;;;12.10;100.00;101386.16;105746;1253;60466;-73
2023/09/24 02:38:07;;;;;;;24.80;18.40;;;;;;;12.09;100.00;101385.52;105786;1257;73733;-76
2023/09/24 02:40:34;;;;;;;23.00;18.40;;;;;;;12.09;100.00;101382.19;105728;1257;64139;-73
2023/09/24 02:43:01;;;;;;;30.00;19.10;;;;;;;12.09;100.00;101375.70;105816;1254;72632;-72
2023/09/24 02:45:33;;;;;;;26.60;18.50;;;;;;;12.09;100.00;101368.16;105793;1256;62025;-71
2023/09/24 02:50:40;;;;;;;27.00;18.20;;;;;;;12.11;100.00;101359.29;102860;1294;600181;-72
2023/09/24 02:53:09;;;;;;;31.10;19.60;;;;;;;12.09;100.00;101354.27;104903;1266;60450;-72
2023/09/24 02:55:36;;;;;;;26.60;20.00;;;;;;;12.12;100.00;101356.45;104967;1263;62532;-72
2023/09/24 02:58:04;;;;;;;30.00;20.20;;;;;;;12.12;100.00;101355.04;104895;1271;72087;-72
2023/09/24 03:00:41;;;;;;;24.00;19.90;;;;;;;12.12;100.00;101352.25;104874;1263;62438;-73
2023/09/24 03:03:10;;;;;;;28.50;18.40;;;;;;;12.11;100.00;101353.86;104777;1266;206326;-71
2023/09/24 03:05:38;;;;;;;27.80;18.50;;;;;;;12.09;100.00;101350.80;105004;1262;60496;-75
2023/09/24 03:08:09;;;;;;;27.90;17.10;;;;;;;12.06;100.00;101349.74;105001;1263;60090;-72
2023/09/24 03:10:37;;;;;;;32.50;17.30;;;;;;;12.02;100.00;101351.31;105045;1261;72681;-73
2023/09/24 03:13:05;;;;;;;24.90;16.70;;;;;;;12.02;100.00;101356.95;105032;1264;63164;-72
2023/09/24 03:15:34;;;;;;;29.10;18.20;;;;;;;12.00;100.00;101361.59;105114;1263;71256;-75
2023/09/24 03:18:01;;;;;;;26.10;19.20;;;;;;;11.99;100.00;101363.26;105886;1256;61682;-75
2023/09/24 03:20:29;;;;;;;23.60;18.90;;;;;;;11.97;100.00;101358.45;105851;1255;60158;-72
2023/09/24 03:23:02;;;;;;;29.20;19.70;;;;;;;11.96;100.00;101352.38;105686;1251;73278;-74
2023/09/24 03:25:36;;;;;;;34.10;20.80;;;;;;;11.95;100.00;101354.00;105763;1257;64728;-72
2023/09/24 03:28:04;;;;;;;33.00;21.50;;;;;;;11.95;100.00;101355.23;105749;1253;72793;-74
2023/09/24 03:30:32;;;;;;;26.90;19.10;;;;;;;11.94;100.00;101356.67;105742;1256;60499;-71
2023/09/24 03:33:00;;;;;;;23.40;18.20;;;;;;;11.93;100.00;101353.23;105761;1256;60803;-72
2023/09/24 03:35:29;;;;;;;23.90;18.30;;;;;;;11.92;100.00;101363.84;105781;1256;71786;-74
2023/09/24 03:37:57;;;;;;;32.00;18.00;;;;;;;11.89;100.00;101362.20;105738;1250;62897;-73
2023/09/24 03:40:26;;;;;;;23.40;17.90;;;;;;;11.88;100.00;101364.04;105801;1256;71369;-75
2023/09/24 03:42:53;;;;;;;27.10;17.30;;;;;;;11.85;100.00;101365.04;109641;1250;60507;-72
2023/09/24 03:45:23;;;;;;;25.90;17.30;;;;;;;11.84;100.00;101365.98;109712;1250;57798;-73
2023/09/24 03:47:51;;;;;;;29.00;19.20;;;;;;;11.83;100.00;101373.68;109588;1250;73046;-73
2023/09/24 03:50:19;;;;;;;25.60;18.20;;;;;;;11.85;100.00;101378.88;109713;1250;62367;-73
2023/09/24 03:52:48;;;;;;;30.90;19.70;;;;;;;11.86;100.00;101380.41;109685;1251;72772;-72
2023/09/24 03:55:16;;;;;;;30.00;18.80;;;;;;;11.86;100.00;101382.11;109636;1250;61747;-73
2023/09/24 03:57:44;;;;;;;29.70;19.30;;;;;;;11.88;100.00;101381.35;109611;1250;60243;-71
2023/09/24 04:00:18;;;;;;;29.40;17.60;;;;;;;11.90;100.00;101377.96;109582;1250;73508;-72
2023/09/24 04:02:47;;;;;;;31.30;18.40;;;;;;;11.92;100.00;101379.75;109603;1250;62693;-72
2023/09/24 04:05:21;;;;;;;27.00;18.90;;;;;;;11.95;100.00;101380.82;109596;1250;71460;-72
2023/09/24 04:07:50;;;;;;;26.80;18.30;;;;;;;11.98;100.00;101381.37;109638;1251;59396;-74
2023/09/24 04:10:19;;;;;;;27.80;18.70;;;;;;;12.01;100.00;101385.58;109691;1250;60051;-72
2023/09/24 04:12:50;;;;;;;29.20;20.00;;;;;;;12.06;100.00;101389.02;109671;1250;73079;-72
2023/09/24 04:15:21;;;;;;;27.00;18.70;;;;;;;12.11;100.00;101383.66;109694;1250;63874;-72
2023/09/24 04:17:50;;;;;;;32.00;19.40;;;;;;;12.17;100.00;101383.16;109664;1249;72735;-71
2023/09/24 04:20:20;;;;;;;29.40;18.60;;;;;;;12.23;100.00;101386.48;109623;1250;60630;-72
2023/09/24 04:22:49;;;;;;;29.40;19.60;;;;;;;12.29;100.00;101389.17;109666;1250;59281;-71
2023/09/24 04:25:17;;;;;;;28.30;18.40;;;;;;;12.34;100.00;101392.54;109656;1250;73247;-73
2023/09/24 04:27:54;;;;;;;33.80;18.40;;;;;;;12.40;100.00;101390.27;109675;1250;61761;-72
2023/09/24 04:30:24;;;;;;;28.10;18.80;;;;;;;12.49;100.00;101392.46;109654;1250;72760;-73
2023/09/24 04:32:53;;;;;;;33.20;18.20;;;;;;;12.61;100.00;101388.98;109660;1249;60490;-74
2023/09/24 04:35:21;;;;;;;33.40;18.40;;;;;;;12.76;100.00;101391.25;109662;1249;58858;-71
2023/09/24 04:37:50;;;;;;;26.40;18.80;;;;;;;12.91;100.00;101393.08;109639;1251;73081;-72
2023/09/24 04:40:18;;;;;;;26.00;17.90;;;;;;;13.03;100.00;101395.53;109606;1250;63665;-72
2023/09/24 04:42:47;;;;;;;30.40;19.10;;;;;;;13.17;100.00;101399.82;109617;1250;72689;-70
2023/09/24 04:45:14;;;;;;;33.50;16.10;;;;;;;13.42;100.00;101399.39;109657;1252;61728;-72
2023/09/24 04:47:42;;;;;;;23.90;16.60;;;;;;;13.92;100.00;101397.48;109621;1250;62210;-73
2023/09/24 04:50:13;;;;;;;24.30;12.90;;;;;;;14.50;100.00;101394.14;109648;1250;73081;-72
2023/09/24 04:52:44;;;;;;;20.80;13.10;;;;;;;15.06;100.00;101396.88;109712;1250;62705;-74
2023/09/24 04:55:15;;;;;;;25.70;12.70;;;;;;;15.67;100.00;101404.20;109657;1251;72635;-73
2023/09/24 04:57:46;;;;;;;16.90;10.50;;;;;;;16.13;100.00;101403.91;109655;1253;62802;-74
2023/09/24 05:00:15;;;;;;;22.20;9.60;;;;;;;16.41;100.00;101408.09;109677;1250;60578;-73
2023/09/24 05:02:44;;;;;;;24.40;11.60;;;;;;;16.59;100.00;101408.73;109634;1250;73752;-73
2023/09/24 05:05:13;;;;;;;21.10;10.70;;;;;;;16.70;100.00;101409.11;109671;1250;63588;-73
2023/09/24 05:07:41;;;;;;;14.50;9.60;;;;;;;16.82;100.00;101411.25;109638;1250;73004;-74
2023/09/24 05:10:09;;;;;;;23.40;10.40;;;;;;;16.97;100.00;101410.69;109630;1252;60341;-73
2023/09/24 05:12:37;;;;;;;20.60;9.40;;;;;;;17.16;100.00;101414.58;109639;1256;58787;-73
2023/09/24 05:15:05;;;;;;;19.40;9.30;;;;;;;17.33;100.00;101417.56;109692;1249;73129;-74
2023/09/24 05:17:35;;;;;;;16.60;10.00;;;;;;;17.49;100.00;101418.33;109615;1250;62579;-73
2023/09/24 05:20:05;;;;;;;15.50;8.90;;;;;;;17.73;100.00;101416.42;109637;1250;72177;-74
2023/09/24 05:22:33;;;;;;;15.80;8.90;;;;;;;18.21;100.00;101418.70;109617;1250;61675;-74
2023/09/24 05:25:01;;;;;;;15.80;8.90;;;;;;;18.72;100.00;101420.81;109646;1250;60125;-77
2023/09/24 05:27:30;;;;;;;24.30;9.50;;;;;;;19.04;100.00;101418.91;109675;1250;71842;-72
2023/09/24 05:30:01;;;;;;;16.80;8.40;;;;;;;19.21;100.00;101421.78;109664;1250;62409;-73
2023/09/24 05:32:32;;;;;;;15.70;9.00;;;;;;;19.36;100.00;101423.53;109646;1250;70974;-75
2023/09/24 05:35:00;;;;;;;16.30;8.60;;;;;;;19.56;100.00;101428.26;109612;1253;59217;-74
2023/09/24 05:37:27;;;;;;;23.60;9.00;;;;;;;19.86;100.00;101427.79;109693;1250;58733;-73
2023/09/24 05:39:56;;;;;;;17.20;10.00;;;;;;;20.39;100.00;101429.80;109673;1251;71810;-74
2023/09/24 05:42:25;;;;;;;18.40;8.90;;;;;;;21.09;100.00;101435.02;109648;1250;62645;-74
2023/09/24 05:44:52;;;;;;;18.60;8.50;;;;;;;21.88;95.80;101438.98;109660;1251;72721;-73
2023/09/24 05:47:20;;;;;;;16.80;8.10;;;;;;;22.68;87.89;101437.66;109626;1251;60102;-73
2023/09/24 05:49:47;;;;;;;12.60;7.80;;;;;;;23.47;78.82;101439.58;109686;1250;60017;-73
2023/09/24 05:52:20;;;;;;;17.10;8.20;;;;;;;24.17;67.74;101436.98;109617;1249;72873;-74
2023/09/24 05:55:11;;;;;;;17.50;7.40;;;;;;;24.94;60.59;101435.98;109656;1250;63629;-72
2023/09/24 05:57:42;;;;;;;21.80;8.40;;;;;;;25.57;55.04;101430.39;109652;1249;72916;-73
2023/09/24 06:00:13;;;;;;;19.10;8.90;;;;;;;26.19;51.92;101429.17;109655;1251;60151;-73
2023/09/24 06:02:41;;;;;;;20.00;9.20;;;;;;;26.73;49.01;101425.66;109684;1250;59994;-75
2023/09/24 06:05:09;;;;;;;15.40;8.20;;;;;;;27.18;46.92;101420.35;109635;1250;73086;-73
2023/09/24 06:07:37;;;;;;;17.30;7.40;;;;;;;27.63;44.32;101422.39;109665;1249;63967;-72
2023/09/24 06:10:05;;;;;;;20.60;9.30;;;;;;;28.06;41.56;101420.32;109664;1250;72691;-74
2023/09/24 06:12:32;;;;;;;18.50;8.60;;;;;;;28.45;40.43;101420.79;109666;1251;58887;-72
2023/09/24 06:15:00;;;;;;;20.90;8.90;;;;;;;28.75;39.64;101414.48;109693;1249;58775;-73
2023/09/24 06:17:29;;;;;;;27.00;10.20;;;;;;;29.13;39.67;101412.42;109650;1250;72763;-72
2023/09/24 06:19:57;;;;;;;29.30;11.20;;;;;;;29.58;38.55;101416.47;109663;1250;63039;-73
2023/09/24 06:22:27;;;;;;;19.30;9.50;;;;;;;29.99;37.26;101419.59;109637;1250;73271;-72
2023/09/24 06:24:55;;;;;;;21.20;8.10;;;;;;;30.38;36.53;101423.93;109721;1250;58858;-72
2023/09/24 06:27:23;;;;;;;28.40;8.90;;;;;;;30.71;34.98;101426.67;109647;1250;58909;-72
2023/09/24 06:29:51;;;;;;;21.30;7.70;;;;;;;31.02;34.36;101424.95;109624;1250;71849;-73
2023/09/24 06:32:20;;;;;;;26.20;8.00;;;;;;;31.24;32.54;101428.83;109677;1250;63812;-75
2023/09/24 06:34:47;;;;;;;28.10;7.80;;;;;;;31.39;32.54;101436.84;109667;1251;72644;-73
2023/09/24 06:37:15;;;;;;;27.70;7.80;;;;;;;31.58;31.55;101437.95;109625;1253;59084;-73
2023/09/24 06:39:44;;;;;;;22.90;7.50;;;;;;;31.66;31.20;101440.05;109708;1250;58820;-74
2023/09/24 06:42:11;;;;;;;18.40;6.70;;;;;;;31.75;30.90;101442.20;109688;1250;72093;-74
2023/09/24 06:44:38;;;;;;;24.80;7.50;;;;;;;31.90;30.89;101447.77;109675;1250;63845;-73
2023/09/24 06:47:06;;;;;;;19.30;6.70;;;;;;;31.99;30.15;101447.55;109711;1250;72649;-74
2023/09/24 06:49:34;;;;;;;26.60;6.80;;;;;;;32.05;30.56;101446.20;109673;1253;58765;-72
2023/09/24 06:52:01;;;;;;;20.80;7.10;;;;;;;32.25;30.24;101449.58;109703;1250;60469;-75
2023/09/24 06:54:31;;;;;;;20.20;6.70;;;;;;;32.47;30.34;101448.11;109636;1251;71749;-77
2023/09/24 06:57:00;;;;;;;16.90;7.10;;;;;;;32.75;29.88;101445.40;109694;1250;63729;-77
2023/09/24 06:59:28;;;;;;;20.10;6.20;;;;;;;33.01;29.85;101445.14;109637;1249;71447;-72
2023/09/24 07:01:55;;;;;;;19.30;6.70;;;;;;;33.26;29.10;101445.95;109631;1250;58817;-77
2023/09/24 07:04:23;;;;;;;15.40;6.80;;;;;;;33.42;28.84;101444.18;109700;1249;59987;-73
2023/09/24 07:06:51;;;;;;;17.30;7.20;;;;;;;33.66;28.75;101442.55;109645;1250;73967;-74
2023/09/24 07:09:19;;;;;;;20.60;7.60;;;;;;;33.93;28.68;101444.38;109623;1251;63522;-77
2023/09/24 07:11:46;;;;;;;16.30;5.10;;;;;;;34.14;28.37;101446.20;109670;1250;70853;-74
2023/09/24 07:14:18;;;;;;;24.20;6.50;;;;;;;34.33;28.08;101442.98;109668;1250;58833;-74
2023/09/24 07:16:46;;;;;;;18.50;5.90;;;;;;;34.53;27.65;101440.15;109667;1251;60141;-73
2023/09/24 07:19:14;;;;;;;17.30;5.40;;;;;;;34.60;27.31;101438.46;109658;1250;73865;-73
2023/09/24 07:21:43;;;;;;;12.50;5.00;;;;;;;34.70;27.65;101435.07;109635;1255;63550;-75
2023/09/24 07:24:10;;;;;;;13.10;5.20;;;;;;;34.89;27.57;101433.30;109646;1250;71483;-74
2023/09/24 07:26:38;;;;;;;20.20;5.30;;;;;;;35.10;27.40;101432.33;109592;1256;60109;-72
2023/09/24 07:29:05;;;;;;;17.30;5.80;;;;;;;35.36;27.09;101432.66;109717;1250;59997;-72
2023/09/24 07:31:34;;;;;;;20.80;5.60;;;;;;;35.60;26.90;101432.14;109637;1252;72985;-73
2023/09/24 07:34:02;;;;;;;15.20;5.20;;;;;;;35.90;26.80;101437.02;109749;1250;62441;-75
2023/09/24 07:36:33;;;;;;;15.70;5.00;;;;;;;36.21;26.50;101434.14;109605;1250;74854;-77
2023/09/24 07:39:15;;;;;;;15.70;6.30;;;;;;;36.48;26.07;101435.25;109631;1256;60066;-74
2023/09/24 07:41:43;;;;;;;15.30;6.10;;;;;;;36.69;25.45;101433.99;109690;1251;58177;-74
2023/09/24 07:44:14;;;;;;;25.60;12.40;;;;;;;36.98;25.67;101428.80;109664;1251;64944;-73
2023/09/24 07:46:44;;;;;;;31.00;13.10;;;;;;;37.19;25.15;101421.59;109662;1249;58148;-75
2023/09/24 07:49:11;;;;;;;25.30;11.30;;;;;;;37.39;24.99;101414.02;109654;1250;63733;-74
2023/09/24 07:51:38;;;;;;;23.30;8.40;;;;;;;37.49;25.33;101416.61;109598;1251;58078;-75
2023/09/24 07:54:07;;;;;;;17.30;6.40;;;;;;;37.34;25.71;101425.44;109681;1251;58133;-76
2023/09/24 07:56:38;;;;;;;14.10;5.90;;;;;;;37.29;25.79;101430.03;109674;1251;63777;-76
2023/09/24 07:59:06;;;;;;;17.10;7.40;;;;;;;37.34;25.54;101428.39;109666;1250;58196;-72
2023/09/24 08:01:34;;;;;;;15.30;5.90;;;;;;;37.41;25.43;101428.16;109654;1256;62510;-75
2023/09/24 08:04:01;;;;;;;16.10;5.60;;;;;;;37.51;25.24;101433.90;109620;1251;58179;-72
2023/09/24 08:06:29;;;;;;;21.10;6.50;;;;;;;37.59;24.53;101430.02;109679;1250;58148;-73
2023/09/24 08:08:57;;;;;;;21.20;6.20;;;;;;;37.54;24.01;101428.20;109639;1251;65008;-74
2023/09/24 08:11:44;;;;;;;28.90;6.90;;;;;;;37.40;24.20;101432.70;109683;1250;58117;-75
2023/09/24 08:14:12;;;;;;;21.60;6.60;;;;;;;37.35;23.88;101430.21;109646;1256;64304;-75
2023/09/24 08:16:39;;;;;;;22.30;7.40;;;;;;;37.26;24.17;101429.54;109603;1251;58106;-78
2023/09/24 08:19:07;;;;;;;23.50;8.10;;;;;;;37.24;24.32;101427.48;109746;1250;58102;-74
2023/09/24 08:21:35;;;;;;;22.10;7.70;;;;;;;37.29;24.21;101425.04;109662;1250;64863;-76
2023/09/24 08:24:02;;;;;;;15.70;7.80;;;;;;;37.40;24.46;101423.84;109685;1250;58229;-78
2023/09/24 08:26:31;;;;;;;18.60;7.80;;;;;;;37.60;24.48;101420.73;109665;1251;62595;-75
2023/09/24 08:28:59;;;;;;;19.10;7.70;;;;;;;37.76;24.13;101419.02;109628;1251;58159;-73
2023/09/24 08:31:27;;;;;;;19.20;8.80;;;;;;;37.86;23.70;101420.90;109720;1250;58135;-75
2023/09/24 08:33:54;;;;;;;21.10;10.20;;;;;;;37.97;23.24;101419.83;109673;1249;63691;-74
2023/09/24 08:36:21;;;;;;;22.60;8.10;;;;;;;38.10;23.53;101420.27;109684;1251;58316;-75
2023/09/24 08:38:49;;;;;;;17.90;5.10;;;;;;;38.20;23.01;101423.23;109635;1251;63955;-73
2023/09/24 08:41:19;;;;;;;13.10;5.20;;;;;;;38.16;22.97;101417.27;109656;1251;58367;-79
2023/09/24 08:43:47;;;;;;;21.90;7.00;;;;;;;38.15;23.20;101416.27;109643;1250;58451;-74
2023/09/24 08:46:16;;;;;;;30.40;8.40;;;;;;;38.23;23.48;101418.55;109620;1250;63634;-72
2023/09/24 08:48:44;;;;;;;21.80;7.70;;;;;;;38.30;22.73;101417.26;109616;1251;63575;-74
2023/09/24 08:51:12;;;;;;;20.30;6.10;;;;;;;38.31;22.54;101412.72;109605;1251;63743;-74
2023/09/24 08:53:39;;;;;;;17.90;4.30;;;;;;;38.27;22.20;101413.66;109601;1251;58139;-75
2023/09/24 08:56:08;;;;;;;13.10;4.90;;;;;;;38.10;22.20;101409.38;109683;1250;58073;-75
2023/09/24 08:58:39;;;;;;;22.00;4.70;;;;;;;38.03;22.52;101412.20;109618;1250;65027;-75
2023/09/24 09:01:10;;;;;;;12.90;5.30;;;;;;;38.07;22.58;101409.66;109665;1251;58392;-76
2023/09/24 09:03:39;;;;;;;;;;;;;;;38.15;22.47;101412.98;109667;1251;63657;-75
2023/09/24 09:06:06;;;;;;;15.10;4.20;;;;;;;38.23;22.21;101413.23;109627;1251;58164;-75
2023/09/24 09:08:50;;;;;;;20.70;4.70;;;;;;;38.21;22.05;101413.59;109654;1250;58184;-73
2023/09/24 09:11:19;;;;;;;14.20;5.80;;;;;;;38.09;22.15;101405.64;109639;1250;63724;-74
2023/09/24 09:13:48;;;;;;;15.70;4.30;;;;;;;38.01;22.33;101402.77;109605;1251;58190;-78
2023/09/24 09:16:16;;;;;;;14.90;4.60;;;;;;;37.99;22.39;101398.15;109655;1251;62699;-73
2023/09/24 09:18:44;;;;;;;16.50;3.90;;;;;;;38.06;22.05;101400.19;109655;1250;58125;-74
2023/09/24 09:21:24;;;;;;;17.90;3.90;;;;;;;38.15;22.05;101400.71;109644;1251;58070;-73
2023/09/24 09:23:52;;;;;;;16.40;3.60;;;;;;;38.28;22.15;101404.91;109616;1250;63690;-76
2023/09/24 09:26:26;;;;;;;11.30;5.10;;;;;;;38.34;21.59;101409.52;109661;1250;58169;-73
2023/09/24 09:28:54;;;;;;;24.20;5.40;;;;;;;38.31;21.72;101404.94;109782;1250;62586;-74
2023/09/24 09:31:21;;;;;;;17.00;4.50;;;;;;;38.30;21.58;101397.96;109869;1251;59666;-74
2023/09/24 09:33:49;;;;;;;16.50;4.50;;;;;;;38.34;22.01;101394.11;109892;1251;58104;-73
2023/09/24 09:36:22;;;;;;;19.30;4.70;;;;;;;38.52;22.25;101395.94;109748;1250;66072;-74
2023/09/24 09:38:51;;;;;;;24.50;5.30;;;;;;;38.73;21.38;101396.11;109680;1251;58068;-74
2023/09/24 09:41:19;;;;;;;18.00;4.20;;;;;;;38.77;20.65;101394.02;109671;1251;64816;-74
2023/09/24 09:43:47;;;;;;;19.60;4.80;;;;;;;38.70;20.43;101388.38;109617;1250;58243;-73
2023/09/24 09:46:18;;;;;;;12.80;3.60;;;;;;;38.72;20.45;101384.55;109631;1250;58122;-77
2023/09/24 09:48:56;;;;;;;14.80;4.60;;;;;;;38.77;20.40;101386.84;109584;1251;63703;-73
2023/09/24 09:51:25;;;;;;;15.10;4.60;;;;;;;38.85;20.11;101387.44;109639;1251;58133;-74
2023/09/24 09:53:53;;;;;;;13.10;4.00;;;;;;;38.92;19.51;101393.30;109743;1250;62720;-74
2023/09/24 09:56:22;;;;;;;16.60;3.80;;;;;;;38.84;18.82;101392.92;109580;1251;58180;-74
2023/09/24 09:58:51;;;;;;;16.30;3.30;;;;;;;38.78;18.78;101388.70;109669;1250;58021;-73
2023/09/24 10:01:20;;;;;;;9.60;2.80;;;;;;;38.73;18.56;101390.92;109630;1251;64154;-73
2023/09/24 10:03:51;;;;;;;15.70;3.20;;;;;;;38.70;18.20;101389.96;109640;1250;58145;-73
2023/09/24 10:06:18;;;;;;;11.40;3.00;;;;;;;38.66;18.39;101393.00;109671;1251;63920;-74
2023/09/24 10:08:49;;;;;;;13.10;3.30;;;;;;;38.66;18.76;101394.20;109618;1251;58138;-74
2023/09/24 10:11:30;;;;;;;13.50;3.70;;;;;;;38.70;18.44;101399.77;109650;1251;58029;-74
2023/09/24 10:14:05;;;;;;;15.40;3.50;;;;;;;38.50;18.32;101398.23;109655;1251;65517;-73
2023/09/24 10:16:40;;;;;;;10.30;3.40;;;;;;;38.23;19.16;101393.72;109695;1251;58123;-75
2023/09/24 10:19:12;;;;;;;17.70;3.60;;;;;;;38.24;19.31;101392.75;109646;1251;63865;-75
2023/09/24 10:21:42;;;;;;;12.70;2.90;;;;;;;38.32;19.27;101392.82;109600;1251;58118;-74
2023/09/24 10:24:13;;;;;;;14.80;2.90;;;;;;;38.36;19.26;101385.41;109637;1251;58133;-74
2023/09/24 10:26:50;;;;;;;9.20;3.40;;;;;;;38.45;19.24;101383.58;109634;1250;64961;-73
2023/09/24 10:29:19;;;;;;;16.90;3.00;;;;;;;38.51;19.20;101386.35;109677;1251;58626;-76
2023/09/24 10:32:09;;;;;;;11.80;3.00;;;;;;;38.57;19.20;101387.72;109730;1251;63923;-75
2023/09/24 10:34:55;;;;;;;11.80;2.80;;;;;;;38.56;18.85;101384.09;109650;1250;58180;-73
2023/09/24 10:37:37;;;;;;;10.20;3.80;;;;;;;38.50;19.07;101384.98;109635;1251;58050;-73
2023/09/24 10:40:05;;;;;;;8.50;3.30;;;;;;;38.51;19.09;101377.08;109609;1250;63821;-74
2023/09/24 10:42:41;;;;;;;15.00;3.60;;;;;;;38.52;19.30;101378.40;109673;1250;58180;-74
2023/09/24 10:45:10;;;;;;;10.60;3.50;;;;;;;38.50;19.00;101385.39;109572;1251;62449;-75
2023/09/24 10:47:44;;;;;;;9.80;3.40;;;;;;;38.30;19.09;101378.17;109626;1251;58110;-76
2023/09/24 10:50:13;;;;;;;14.30;3.50;;;;;;;38.16;19.66;101372.99;109637;1251;58078;-73
2023/09/24 10:52:58;;;;;;;17.00;3.30;;;;;;;38.17;19.44;101377.29;109656;1250;63878;-73
2023/09/24 10:55:29;;;;;;;10.90;2.90;;;;;;;38.19;19.42;101376.86;109662;1250;58043;-72
2023/09/24 10:57:59;;;;;;;7.10;2.40;;;;;;;38.19;19.10;101378.85;109586;1251;62492;-74
2023/09/24 11:00:27;;;;;;;28.40;20.30;;;;;;;38.12;19.02;101378.06;109615;1251;58250;-74
2023/09/24 11:02:57;;;;;;;10.60;4.30;;;;;;;38.08;19.22;101375.23;109743;1250;58189;-74
2023/09/24 11:05:25;;;;;;;7.10;3.40;;;;;;;38.07;19.24;101373.66;109638;1251;65050;-75
2023/09/24 11:07:54;;;;;;;14.50;2.80;;;;;;;38.00;18.89;101373.20;109682;1250;58066;-77
2023/09/24 11:10:25;;;;;;;9.50;2.70;;;;;;;37.78;18.93;101365.21;109615;1252;63889;-72
2023/09/24 11:12:53;;;;;;;11.30;2.80;;;;;;;37.56;18.94;101361.40;109655;1251;58140;-74
2023/09/24 11:18:13;;;;;;;10.90;5.00;;;;;;;36.98;19.90;101364.70;102787;1293;601175;-76